Latest Coastal Weather Observations for Cape Nelson

IDV60701

Issued at 8:35 am EDT Saturday 29 November 2014 (issued every 10 minutes, with the page automatically refreshed every 10 minutes)

About coastal observations | Map of coastal stations | Coastal observations for VIC | Marine services | Other Formats
Station Details ID: 090184 Name: CAPE NELSON LIGHTHOUSE Lat: -38.43 Lon: 141.54 Height: 45.4 m
Data from the previous 72 hours. | See also: Recent months at Cape Nelson
Date/Time
EDT
Temp

°C
Wind Pressure Rain
since 9am
mm
Weather Cloud Vis
km
Sea
Height
m
Swell
Dir
 
Speed
knots
Gust
knots
hPa Trend Height
m
Period
s
Dir
29/08:30am 14.8 E 15 20 1016.6 - 0.0 - - - - - - -
29/08:00am 14.0 E 14 22 1016.5 - 0.0 - - - - - - -
29/07:30am 13.3 E 15 20 1016.5 - 0.0 - - - - - - -
29/07:16am 13.4 E 17 27 1016.4 - 0.0 - - - - - - -
29/07:00am 13.3 E 21 28 1016.4 - 0.0 - - - - - - -
29/06:30am 13.2 E 19 26 1016.2 - 0.0 - - - - - - -
29/06:00am 13.3 E 15 22 1016.2 - 0.0 - - - - - - -
29/05:30am 13.6 E 18 26 1016.2 - 0.0 - - - - - - -
29/05:00am 13.4 E 19 27 1016.3 - 0.0 - - - - - - -
29/04:30am 13.5 E 20 28 1016.4 - 0.0 - - - - - - -
29/04:00am 13.5 E 20 25 1016.7 - 0.0 - - - - - - -
29/03:30am 13.7 E 20 25 1016.9 - 0.0 - - - - - - -
29/03:00am 13.5 E 19 25 1017.1 - 0.0 - - - - - - -
29/02:30am 13.3 E 19 24 1017.6 - 0.0 - - - - - - -
29/02:00am 13.3 E 21 27 1017.9 - 0.0 - - - - - - -
29/01:30am 13.4 E 21 25 1018.2 - 0.0 - - - - - - -
29/01:00am 13.2 E 21 25 1018.5 - 0.0 - - - - - - -
29/12:30am 13.4 E 20 25 1019.0 - 0.0 - - - - - - -
29/12:00am 13.2 E 20 25 1019.2 - 0.0 - - - - - - -
 
Date/Time
EDT
Temp

°C
Wind Pressure Rain
since 9am
mm
Weather Cloud Vis
km
Sea
Height
m
Swell
Dir
 
Speed
knots
Gust
knots
hPa Trend Height
m
Period
s
Dir
28/11:30pm 13.2 E 21 25 1019.5 - 0.0 - - - - - - -
28/11:00pm 13.1 E 21 25 1019.8 - 0.0 - - - - - - -
28/10:30pm 13.6 E 16 21 1020.3 - 0.0 - - - - - - -
28/10:00pm 13.3 ESE 13 22 1020.4 - 0.0 - - - - - - -
28/09:30pm 13.4 ESE 14 20 1020.4 - 0.0 - - - - - - -
28/09:00pm 13.3 ESE 13 21 1020.4 - 0.0 - - - - - - -
28/08:30pm 13.4 ESE 13 19 1020.5 - 0.0 - - - - - - -
28/08:00pm 13.8 ESE 14 19 1020.6 - 0.0 - - - - - - -
28/07:30pm 13.7 ESE 14 20 1020.5 - 0.0 - - - - - - -
28/07:00pm 14.2 ESE 14 22 1020.4 - 0.0 - - - - - - -
28/06:30pm 14.8 ESE 13 19 1020.3 - 0.0 - - - - - - -
28/06:00pm 15.1 ESE 13 19 1020.4 - 0.0 - - - - - - -
28/05:30pm 15.5 SE 13 21 1020.7 - 0.0 - - - - - - -
28/05:00pm 15.4 SE 14 20 1020.5 - 0.0 - - - - - - -
28/04:30pm 15.5 SE 14 22 1020.5 - 0.0 - - - - - - -
28/04:00pm 15.8 SE 14 21 1020.7 - 0.0 - - - - - - -
28/03:30pm 16.1 SE 13 22 1021.1 - 0.0 - - - - - - -
28/03:00pm 16.3 ESE 13 19 1021.1 - 0.0 - - - - - - -
28/02:30pm 16.1 ESE 12 19 1021.4 - 0.0 - - - - - - -
28/02:00pm 16.1 E 14 21 1021.5 - 0.0 - - - - - - -
28/01:30pm 15.9 E 17 22 1022.1 - 0.0 - - - - - - -
28/01:00pm 16.4 E 17 23 1022.4 - 0.0 - - - - - - -
28/12:30pm 15.9 E 17 21 1022.8 - 0.0 - - - - - - -
28/12:00pm 15.4 E 15 19 1023.5 - 0.0 - - - - - - -
28/11:30am 15.7 E 18 22 1023.1 - 0.0 - - - - - - -
28/11:00am 15.2 E 16 19 1023.5 - 0.0 - - - - - - -
28/10:30am 15.4 E 15 20 1024.0 - 0.0 - - - - - - -
28/10:00am 14.7 E 16 20 1024.0 - 0.0 - - - - - - -
28/09:30am 14.1 E 15 21 1024.3 - 0.0 - - - - - - -
28/09:00am 13.5 E 15 19 1024.2 - 0.0 - - - - - - -
28/08:30am 13.4 ESE 13 19 1024.2 - 0.0 - - - - - - -
28/08:00am 13.1 E 16 23 1023.9 - 0.0 - - - - - - -
28/07:30am 12.9 E 15 21 1023.9 - 0.0 - - - - - - -
28/07:00am 12.8 E 15 20 1024.1 - 0.0 - - - - - - -
28/06:30am 12.8 SE 11 16 1024.1 - 0.0 - - - - - - -
28/06:00am 12.8 ESE 11 19 1023.7 - 0.0 - - - - - - -
28/05:30am 12.9 SE 12 19 1023.6 - 0.0 - - - - - - -
28/05:00am 12.9 ESE 12 18 1023.5 - 0.0 - - - - - - -
28/04:30am 12.9 ESE 11 16 1023.3 - 0.0 - - - - - - -
28/04:00am 13.0 E 13 17 1023.2 - 0.0 - - - - - - -
28/03:30am 13.0 ESE 11 17 1023.3 - 0.0 - - - - - - -
28/03:00am 13.1 ESE 10 15 1023.4 - 0.0 - - - - - - -
28/02:30am 13.1 ESE 11 16 1023.6 - 0.0 - - - - - - -
28/02:00am 12.9 ESE 11 17 1023.7 - 0.0 - - - - - - -
28/01:30am 12.9 ESE 11 17 1023.8 - 0.0 - - - - - - -
28/01:00am 13.0 ESE 12 17 1023.9 - 0.0 - - - - - - -
28/12:30am 13.0 ESE 11 18 1024.4 - 0.0 - - - - - - -
28/12:00am 13.0 E 13 19 1024.2 - 0.0 - - - - - - -
 
Date/Time
EDT
Temp

°C
Wind Pressure Rain
since 9am
mm
Weather Cloud Vis
km
Sea
Height
m
Swell
Dir
 
Speed
knots
Gust
knots
hPa Trend Height
m
Period
s
Dir
27/11:30pm 12.9 E 15 21 1024.2 - 0.0 - - - - - - -
27/11:00pm 13.1 ESE 13 20 1024.4 - 0.0 - - - - - - -
27/10:30pm 13.0 ESE 12 17 1024.9 - 0.0 - - - - - - -
27/10:00pm 12.8 ESE 11 16 1024.9 - 0.0 - - - - - - -
27/09:30pm 12.8 ESE 12 19 1024.9 - 0.0 - - - - - - -
27/09:00pm 13.0 ESE 13 19 1025.1 - 0.0 - - - - - - -
27/08:30pm 13.2 ESE 12 19 1024.8 - 0.0 - - - - - - -
27/08:00pm 13.3 ESE 11 17 1024.8 - 0.0 - - - - - - -
27/07:30pm 13.5 E 12 16 1024.8 - 0.0 - - - - - - -
27/07:00pm 14.1 E 12 18 1024.8 - 0.0 - - - - - - -
27/06:30pm 14.3 SE 13 20 1024.8 - 0.0 - - - - - - -
27/06:00pm 14.8 SE 13 18 1025.2 - 0.0 - - - - - - -
27/05:30pm 14.9 ESE 12 19 1025.1 - 0.0 - - - - - - -
27/05:00pm 15.1 SE 12 18 1025.4 - 0.0 - - - - - - -
27/04:30pm 15.4 SE 13 20 1025.4 - 0.0 - - - - - - -
27/04:00pm 15.4 SE 12 18 1025.7 - 0.0 - - - - - - -
27/03:30pm 15.8 ESE 11 17 1025.9 - 0.0 - - - - - - -
27/03:00pm 15.8 ESE 12 17 1026.1 - 0.0 - - - - - - -
27/02:30pm 15.9 ESE 11 18 1026.1 - 0.0 - - - - - - -
27/02:00pm 16.2 ESE 11 17 1026.3 - 0.0 - - - - - - -
27/01:30pm 16.3 ESE 10 16 1026.4 - 0.0 - - - - - - -
27/01:00pm 16.2 ESE 8 13 1026.7 - 0.0 - - - - - - -
27/12:30pm 15.9 E 11 15 1026.9 - 0.0 - - - - - - -
27/12:00pm 15.9 ESE 11 15 1026.9 - 0.0 - - - - - - -
27/11:30am 15.8 ESE 11 15 1027.1 - 0.0 - - - - - - -
27/11:00am 15.4 ESE 10 16 1027.1 - 0.0 - - - - - - -
27/10:30am 15.1 ESE 12 17 1027.1 - 0.0 - - - - - - -
27/10:00am 14.1 SE 10 17 1027.2 - 0.0 - - - - - - -
27/09:30am 14.2 SE 11 16 1027.1 - 0.0 - - - - - - -
27/09:00am 14.0 SE 10 15 1026.9 - 0.2 - - - - - - -
27/08:30am 13.6 ESE 10 15 1026.8 - 0.2 - - - - - - -
27/08:00am 12.9 SE 10 14 1026.6 - 0.2 - - - - - - -
27/07:30am 12.9 ESE 11 17 1026.5 - 0.2 - - - - - - -
27/07:00am 12.9 ESE 8 13 1026.3 - 0.2 - - - - - - -
27/06:30am 12.6 ESE 9 14 1026.3 - 0.2 - - - - - - -
27/06:00am 12.5 SSE 11 13 1025.9 - 0.2 - - - - - - -
27/05:30am 12.6 ESE 9 15 1025.6 - 0.2 - - - - - - -
27/05:00am 12.9 SE 9 13 1025.3 - 0.2 - - - - - - -
27/04:30am 12.9 SE 9 16 1025.0 - 0.2 - - - - - - -
27/04:00am 13.0 SE 10 15 1024.8 - 0.2 - - - - - - -
27/03:30am 12.9 SE 7 9 1024.7 - 0.2 - - - - - - -
27/03:00am 12.8 ESE 10 16 1024.7 - 0.2 - - - - - - -
27/02:30am 12.8 SE 9 14 1024.8 - 0.2 - - - - - - -
27/02:00am 12.7 SE 8 12 1025.1 - 0.2 - - - - - - -
27/01:30am 12.9 SE 11 17 1025.2 - 0.2 - - - - - - -
27/01:00am 12.8 SE 10 14 1025.4 - 0.2 - - - - - - -
27/12:30am 12.8 SE 9 14 1025.6 - 0.2 - - - - - - -
27/12:00am 12.8 SSE 10 17 1025.7 - 0.2 - - - - - - -
 
Date/Time
EDT
Temp

°C
Wind Pressure Rain
since 9am
mm
Weather Cloud Vis
km
Sea
Height
m
Swell
Dir
 
Speed
knots
Gust
knots
hPa Trend Height
m
Period
s
Dir
26/11:30pm 12.8 SSE 13 18 1025.6 - 0.2 - - - - - - -
26/11:00pm 13.0 SSE 13 18 1025.7 - 0.2 - - - - - - -
26/10:30pm 13.2 SSE 11 18 1025.5 - 0.2 - - - - - - -
26/10:00pm 13.0 SE 11 17 1025.2 - 0.2 - - - - - - -
26/09:30pm 12.8 SSE 10 15 1024.9 - 0.2 - - - - - - -
26/09:00pm 13.2 SSE 13 17 1024.8 - 0.2 - - - - - - -
26/08:30pm 13.3 S 11 18 1024.7 - 0.2 - - - - - - -
26/08:00pm 13.5 S 9 13 1024.7 - 0.2 - - - - - - -
26/07:30pm 13.7 S 13 17 1024.4 - 0.2 - - - - - - -
26/07:00pm 13.9 S 12 16 1024.3 - 0.2 - - - - - - -
26/06:30pm 14.1 S 11 16 1023.9 - 0.2 - - - - - - -
26/06:00pm 15.0 S 11 14 1023.9 - 0.2 - - - - - - -
26/05:30pm 15.2 S 10 13 1023.8 - 0.2 - - - - - - -
26/05:00pm 15.3 S 11 14 1023.7 - 0.2 - - - - - - -
26/04:30pm 15.5 S 11 14 1023.7 - 0.2 - - - - - - -
26/04:00pm 15.6 S 11 15 1023.7 - 0.2 - - - - - - -
26/03:30pm 16.3 S 11 14 1023.5 - 0.2 - - - - - - -
26/03:00pm 15.3 S 11 15 1023.5 - 0.2 - - - - - - -
26/02:30pm 15.1 S 11 17 1023.6 - 0.2 - - - - - - -
26/02:00pm 14.2 S 12 17 1023.5 - 0.2 - - - - - - -
26/01:30pm 14.9 S 8 13 1023.3 - 0.2 - - - - - - -
26/01:00pm 15.8 NNE 8 14 1023.2 - 0.0 - - - - - - -
26/12:30pm 14.8 W 14 19 1023.2 - 0.0 - - - - - - -
26/12:00pm 15.5 W 14 19 1023.1 - 0.0 - - - - - - -
26/11:30am 15.6 W 12 19 1023.0 - 0.0 - - - - - - -
26/11:00am 15.0 W 13 19 1022.8 - 0.0 - - - - - - -
26/10:30am 15.2 W 15 22 1022.6 - 0.0 - - - - - - -
26/10:00am 14.8 W 15 19 1022.5 - 0.0 - - - - - - -
26/09:30am 15.1 W 13 18 1022.2 - 0.0 - - - - - - -
26/09:00am 14.8 W 11 18 1021.9 - 0.2 - - - - - - -

Other Formats:

Comma delimited format used in spreadsheet applications
http://www.bom.gov.au/fwo/IDV60701/IDV60701.94826.axf

JavaScript Object Notation format (JSON) in row-major order
http://www.bom.gov.au/fwo/IDV60701/IDV60701.94826.json